createdAt,value
2023-04-30T00:02:17.417Z,64.47
2023-04-30T00:04:47.377Z,64.80
2023-04-30T00:07:15.805Z,64.76
2023-04-30T00:09:44.132Z,64.83
2023-04-30T00:12:12.405Z,64.90
2023-04-30T00:14:40.836Z,64.94
2023-04-30T00:17:09.121Z,64.95
2023-04-30T00:19:37.474Z,64.50
2023-04-30T00:22:07.420Z,64.39
2023-04-30T00:24:35.758Z,64.75
2023-04-30T00:27:04.031Z,64.78
2023-04-30T00:29:32.366Z,65.25
2023-04-30T00:32:00.646Z,65.64
2023-04-30T00:34:28.989Z,65.74
2023-04-30T00:36:57.234Z,66.02
2023-04-30T00:39:26.989Z,66.10
2023-04-30T00:41:55.333Z,65.79
2023-04-30T00:44:23.605Z,65.47
2023-04-30T00:46:51.849Z,65.56
2023-04-30T00:49:20.324Z,65.23
2023-04-30T00:51:49.146Z,64.87
2023-04-30T00:54:17.983Z,65.20
2023-04-30T00:56:47.972Z,64.98
2023-04-30T00:59:16.737Z,64.97
2023-04-30T01:01:45.161Z,65.25
2023-04-30T01:04:13.968Z,65.60
2023-04-30T01:06:43.431Z,65.77
2023-04-30T01:09:12.006Z,65.93
2023-04-30T01:11:51.302Z,66.18
2023-04-30T01:14:27.302Z,66.38
2023-04-30T01:17:06.114Z,66.66
2023-04-30T01:19:43.334Z,66.67
2023-04-30T01:22:16.141Z,66.83
2023-04-30T01:25:07.996Z,66.70
2023-04-30T01:28:03.886Z,66.43
2023-04-30T01:30:33.206Z,66.28
2023-04-30T01:33:02.170Z,66.40
2023-04-30T01:35:46.265Z,66.18
2023-04-30T01:38:24.981Z,66.55
2023-04-30T01:40:59.600Z,66.42
2023-04-30T01:43:40.971Z,66.31
2023-04-30T01:46:19.420Z,66.40
2023-04-30T01:48:54.916Z,66.41
2023-04-30T01:51:32.356Z,66.50
2023-04-30T01:54:06.824Z,66.46
2023-04-30T01:56:45.710Z,66.22
2023-04-30T01:59:16.699Z,66.16
2023-04-30T02:01:44.995Z,66.31
2023-04-30T02:04:13.388Z,66.30
2023-04-30T02:06:41.816Z,66.28
2023-04-30T02:09:10.800Z,66.06
2023-04-30T02:11:39.166Z,65.79
2023-04-30T02:14:07.509Z,64.89
2023-04-30T02:16:37.581Z,64.19
2023-04-30T02:19:05.916Z,64.34
2023-04-30T02:21:34.233Z,63.77
2023-04-30T02:24:02.696Z,63.72
2023-04-30T02:26:31.078Z,64.10
2023-04-30T02:29:00.382Z,63.88
2023-04-30T02:31:28.726Z,63.77
2023-04-30T02:33:58.688Z,64.07
2023-04-30T02:36:27.283Z,63.59
2023-04-30T02:38:55.721Z,63.77
2023-04-30T02:41:24.026Z,63.74
2023-04-30T02:43:52.929Z,64.06
2023-04-30T02:46:21.228Z,65.07
2023-04-30T02:48:51.012Z,64.99
2023-04-30T02:51:20.689Z,65.10
2023-04-30T02:53:49.710Z,65.38
2023-04-30T02:56:17.939Z,65.04
2023-04-30T02:58:46.639Z,64.66
2023-04-30T03:01:15.588Z,64.74
2023-04-30T03:03:44.038Z,64.54
2023-04-30T03:06:12.304Z,64.27
2023-04-30T03:08:41.992Z,64.29
2023-04-30T03:11:10.461Z,64.25
2023-04-30T03:13:38.670Z,64.42
2023-04-30T03:16:07.081Z,64.12
2023-04-30T03:18:35.376Z,64.20
2023-04-30T03:21:03.684Z,63.61
2023-04-30T03:23:32.269Z,63.18
2023-04-30T03:26:01.957Z,62.93
2023-04-30T03:28:30.438Z,62.16
2023-04-30T03:30:59.322Z,59.96
2023-04-30T03:33:27.654Z,56.84
2023-04-30T03:35:56.110Z,54.14
2023-04-30T03:38:24.496Z,52.61
2023-04-30T03:40:52.941Z,51.88
2023-04-30T03:43:23.463Z,51.60
2023-04-30T03:45:52.322Z,49.87
2023-04-30T03:48:21.573Z,49.63
2023-04-30T03:50:50.091Z,49.09
2023-04-30T03:53:18.435Z,50.29
2023-04-30T03:55:46.820Z,50.97
2023-04-30T03:58:15.127Z,49.84
2023-04-30T04:00:45.834Z,47.35
2023-04-30T04:03:14.305Z,44.25
2023-04-30T04:05:42.791Z,43.23
2023-04-30T04:08:12.048Z,42.53
2023-04-30T04:10:41.212Z,41.42
2023-04-30T04:13:09.639Z,41.50
2023-04-30T04:15:37.943Z,40.07
2023-04-30T04:18:08.741Z,39.47
2023-04-30T04:20:37.170Z,38.54
2023-04-30T04:23:05.491Z,39.33
2023-04-30T04:25:34.357Z,39.11
2023-04-30T04:28:02.600Z,37.88
2023-04-30T04:30:30.937Z,36.91
2023-04-30T04:33:00.531Z,36.28
2023-04-30T04:35:30.300Z,35.55
2023-04-30T04:37:59.163Z,35.75
2023-04-30T04:40:28.297Z,35.29
2023-04-30T04:42:58.147Z,35.21
2023-04-30T04:45:26.358Z,34.76
2023-04-30T04:47:54.676Z,32.52
2023-04-30T04:50:23.070Z,33.03
2023-04-30T04:52:52.784Z,31.36
2023-04-30T04:55:21.123Z,29.76
2023-04-30T04:57:49.348Z,29.96
2023-04-30T05:00:18.630Z,31.65
2023-04-30T05:02:46.973Z,30.71
2023-04-30T05:05:15.318Z,29.17
2023-04-30T05:07:44.511Z,29.67
2023-04-30T05:10:14.234Z,28.72
2023-04-30T05:12:42.621Z,29.27
2023-04-30T05:15:11.587Z,27.76
2023-04-30T05:17:39.891Z,26.57
2023-04-30T05:20:09.618Z,26.08
2023-04-30T05:22:37.995Z,27.62
2023-04-30T05:25:07.290Z,26.17
2023-04-30T05:27:37.421Z,26.48
2023-04-30T05:30:06.897Z,26.36
2023-04-30T05:32:36.022Z,25.46
2023-04-30T05:35:04.508Z,25.88
2023-04-30T05:37:32.844Z,25.57
2023-04-30T05:40:01.110Z,24.32
2023-04-30T05:42:29.346Z,25.81
2023-04-30T05:44:59.049Z,26.28
2023-04-30T05:47:27.269Z,25.12
2023-04-30T05:49:56.370Z,25.26
2023-04-30T05:52:24.860Z,24.93
2023-04-30T05:54:54.063Z,24.07
2023-04-30T05:57:22.432Z,23.58
2023-04-30T05:59:50.869Z,22.97
2023-04-30T06:02:20.543Z,22.62
2023-04-30T06:04:49.331Z,24.51
2023-04-30T06:07:17.730Z,25.77
2023-04-30T06:09:45.929Z,24.43
2023-04-30T06:12:14.321Z,21.78
2023-04-30T06:14:45.505Z,22.92
2023-04-30T06:17:13.956Z,22.84
2023-04-30T06:19:43.613Z,22.00
2023-04-30T06:22:11.839Z,22.82
2023-04-30T06:24:40.128Z,24.21
2023-04-30T06:27:08.380Z,23.40
2023-04-30T06:29:36.773Z,20.97
2023-04-30T06:32:07.038Z,20.98
2023-04-30T06:34:37.120Z,20.76
2023-04-30T06:37:07.003Z,22.00
2023-04-30T06:39:35.411Z,22.79
2023-04-30T06:42:04.027Z,23.78
2023-04-30T06:44:33.253Z,22.28
2023-04-30T06:47:01.513Z,20.55
2023-04-30T06:49:29.760Z,21.32
2023-04-30T06:51:58.714Z,22.99
2023-04-30T06:54:28.426Z,21.81
2023-04-30T06:56:57.025Z,23.00
2023-04-30T06:59:25.471Z,22.06
2023-04-30T07:01:53.869Z,22.59
2023-04-30T07:04:22.242Z,23.56
2023-04-30T07:06:51.359Z,22.45
2023-04-30T07:09:19.835Z,23.64
2023-04-30T07:11:50.458Z,23.00
2023-04-30T07:14:18.747Z,22.93
2023-04-30T07:16:47.014Z,22.11
2023-04-30T07:19:15.296Z,21.04
2023-04-30T07:21:43.885Z,23.83
2023-04-30T07:24:12.179Z,22.72
2023-04-30T07:26:40.436Z,23.35
2023-04-30T07:29:10.356Z,26.01
2023-04-30T07:31:38.750Z,26.57
2023-04-30T07:34:07.148Z,25.65
2023-04-30T07:36:35.866Z,25.32
2023-04-30T07:39:05.570Z,26.50
2023-04-30T07:41:33.969Z,27.85
2023-04-30T07:44:02.407Z,28.49
2023-04-30T07:46:32.162Z,29.71
2023-04-30T07:49:00.654Z,31.77
2023-04-30T07:51:29.215Z,32.71
2023-04-30T07:53:57.524Z,33.47
2023-04-30T07:56:25.827Z,33.37
2023-04-30T07:58:54.183Z,32.86
2023-04-30T08:01:22.589Z,32.44
2023-04-30T08:03:52.321Z,33.86
2023-04-30T08:06:20.860Z,33.78
2023-04-30T08:08:50.502Z,33.36
2023-04-30T08:11:18.830Z,32.85
2023-04-30T08:13:47.403Z,33.50
2023-04-30T08:16:15.889Z,33.84
2023-04-30T08:18:46.331Z,34.10
2023-04-30T08:21:16.455Z,33.66
2023-04-30T08:23:44.869Z,33.98
2023-04-30T08:26:13.144Z,33.50
2023-04-30T08:28:41.510Z,33.82
2023-04-30T08:31:09.786Z,33.91
2023-04-30T08:33:38.043Z,34.25
2023-04-30T08:36:06.786Z,34.95
2023-04-30T08:38:36.717Z,34.24
2023-04-30T08:41:11.523Z,34.00
2023-04-30T08:43:40.188Z,34.89
2023-04-30T08:46:09.174Z,35.07
2023-04-30T08:48:37.721Z,35.14
2023-04-30T08:51:06.639Z,34.29
2023-04-30T08:53:39.149Z,34.07
2023-04-30T08:56:08.104Z,34.07
2023-04-30T08:58:36.384Z,34.73
2023-04-30T09:01:05.562Z,34.16
2023-04-30T09:03:34.141Z,34.16
2023-04-30T09:06:02.468Z,33.58
2023-04-30T09:08:47.033Z,33.92
2023-04-30T09:11:25.994Z,34.30
2023-04-30T09:13:57.489Z,34.26
2023-04-30T09:16:26.782Z,33.27
2023-04-30T09:18:56.812Z,33.08
2023-04-30T09:21:35.367Z,33.37
2023-04-30T09:24:06.676Z,33.63
2023-04-30T09:26:36.408Z,32.73
2023-04-30T09:29:08.865Z,33.44
2023-04-30T09:31:38.174Z,32.80
2023-04-30T09:34:06.893Z,33.34
2023-04-30T09:36:35.934Z,32.79
2023-04-30T09:39:14.815Z,32.89
2023-04-30T09:41:43.891Z,33.39
2023-04-30T09:44:29.762Z,33.08
2023-04-30T09:46:59.431Z,33.36
2023-04-30T09:49:28.297Z,34.50
2023-04-30T09:51:57.700Z,34.03
2023-04-30T09:54:30.382Z,33.95
2023-04-30T09:57:00.224Z,32.94
2023-04-30T09:59:35.510Z,32.04
2023-04-30T10:02:05.808Z,32.93
2023-04-30T10:04:36.235Z,32.85
2023-04-30T10:07:07.943Z,32.67
2023-04-30T10:09:42.766Z,32.85
2023-04-30T10:12:16.569Z,32.51
2023-04-30T10:14:52.825Z,31.69
2023-04-30T10:17:25.336Z,31.65
2023-04-30T10:19:56.627Z,31.98
2023-04-30T10:22:25.411Z,31.75
2023-04-30T10:24:55.933Z,32.18
2023-04-30T10:27:24.345Z,31.63
2023-04-30T10:29:53.120Z,32.38
2023-04-30T10:32:23.013Z,32.36
2023-04-30T10:35:00.567Z,32.80
2023-04-30T10:37:47.598Z,33.40
2023-04-30T10:40:17.567Z,33.73
2023-04-30T10:42:47.707Z,33.59
2023-04-30T10:45:17.829Z,32.42
2023-04-30T10:47:47.072Z,32.66
2023-04-30T10:50:15.487Z,33.44
2023-04-30T10:52:45.741Z,33.18
2023-04-30T10:55:20.302Z,32.53
2023-04-30T10:57:50.059Z,31.76
2023-04-30T11:00:25.981Z,31.03
2023-04-30T11:02:58.702Z,31.74
2023-04-30T11:05:37.928Z,32.41
2023-04-30T11:08:07.098Z,33.04
2023-04-30T11:10:37.232Z,33.05
2023-04-30T11:13:07.830Z,33.27
2023-04-30T11:15:41.587Z,32.76
2023-04-30T11:18:10.828Z,32.10
2023-04-30T11:20:42.061Z,31.57
2023-04-30T11:23:11.687Z,32.04
2023-04-30T11:25:45.735Z,32.03
2023-04-30T11:28:17.839Z,32.47
2023-04-30T11:30:53.778Z,32.30
2023-04-30T11:33:22.963Z,31.92
2023-04-30T11:35:53.381Z,31.50
2023-04-30T11:38:24.480Z,32.26
2023-04-30T11:40:55.102Z,32.11
2023-04-30T11:43:29.729Z,32.23
2023-04-30T11:46:07.493Z,31.25
2023-04-30T11:48:37.097Z,31.51
2023-04-30T11:51:07.476Z,30.82
2023-04-30T11:53:35.714Z,31.36
2023-04-30T11:56:06.498Z,31.23
2023-04-30T11:58:40.163Z,31.43
2023-04-30T12:01:09.783Z,35.77
2023-04-30T12:03:45.458Z,42.04
2023-04-30T12:06:14.351Z,43.97
2023-04-30T12:08:44.024Z,45.25
2023-04-30T12:11:25.553Z,46.96
2023-04-30T12:13:55.456Z,48.89
2023-04-30T12:16:25.251Z,51.99
2023-04-30T12:18:53.587Z,54.83
2023-04-30T12:21:23.589Z,55.10
2023-04-30T12:23:52.153Z,51.85
2023-04-30T12:26:21.101Z,53.39
2023-04-30T12:28:51.236Z,55.24
2023-04-30T12:31:19.908Z,58.26
2023-04-30T12:33:56.517Z,58.60
2023-04-30T12:36:31.713Z,55.43
2023-04-30T12:39:10.196Z,56.40
2023-04-30T12:41:41.630Z,59.27
2023-04-30T12:44:19.043Z,55.59
2023-04-30T12:46:48.297Z,54.80
2023-04-30T12:49:26.912Z,52.87
2023-04-30T12:52:01.442Z,51.14
2023-04-30T12:54:30.478Z,54.10
2023-04-30T12:57:03.543Z,51.74
2023-04-30T12:59:34.855Z,53.08
2023-04-30T13:02:10.723Z,53.31
2023-04-30T13:04:39.193Z,53.46
2023-04-30T13:07:07.620Z,53.51
2023-04-30T13:09:36.964Z,51.85
2023-04-30T13:12:06.565Z,51.68
2023-04-30T13:14:36.652Z,48.17
2023-04-30T13:17:07.227Z,50.28
2023-04-30T13:19:35.538Z,50.03
2023-04-30T13:22:04.054Z,50.29
2023-04-30T13:24:32.465Z,50.35
2023-04-30T13:27:00.843Z,51.95
2023-04-30T13:29:29.122Z,50.39
2023-04-30T13:31:59.380Z,50.19
2023-04-30T13:34:27.688Z,50.42
2023-04-30T13:36:55.981Z,50.10
2023-04-30T13:39:24.323Z,50.55
2023-04-30T13:41:52.690Z,52.73
2023-04-30T13:44:20.947Z,53.62
2023-04-30T13:46:50.375Z,52.63
2023-04-30T13:49:20.145Z,53.35
2023-04-30T13:51:48.559Z,54.27
2023-04-30T13:54:16.854Z,56.29
2023-04-30T13:56:45.173Z,54.93
2023-04-30T13:59:13.435Z,55.23
2023-04-30T14:01:42.223Z,56.70
2023-04-30T14:04:10.564Z,54.32
2023-04-30T14:06:40.325Z,53.70
2023-04-30T14:09:08.959Z,52.38
2023-04-30T14:11:37.204Z,52.43
2023-04-30T14:14:05.914Z,54.85
2023-04-30T14:16:34.414Z,56.63
2023-04-30T14:19:02.916Z,56.39
2023-04-30T14:21:31.502Z,56.11
2023-04-30T14:24:01.306Z,56.46
2023-04-30T14:26:29.727Z,57.70
2023-04-30T14:28:58.844Z,56.25
2023-04-30T14:31:27.338Z,56.19
2023-04-30T14:33:55.906Z,55.06
2023-04-30T14:36:24.229Z,55.89
2023-04-30T14:38:52.750Z,56.78
2023-04-30T14:41:22.458Z,58.42
2023-04-30T14:43:52.762Z,59.73
2023-04-30T14:46:21.139Z,61.08
2023-04-30T14:48:49.647Z,60.93
2023-04-30T14:51:17.911Z,61.60
2023-04-30T14:53:46.155Z,61.39
2023-04-30T14:56:14.543Z,62.56
2023-04-30T14:58:44.428Z,63.52
2023-04-30T15:01:12.658Z,64.85
2023-04-30T15:03:41.149Z,66.92
2023-04-30T15:06:09.702Z,68.33
2023-04-30T15:08:38.076Z,68.12
2023-04-30T15:11:07.286Z,63.95
2023-04-30T15:13:35.466Z,64.73
2023-04-30T15:16:05.489Z,66.21
2023-04-30T15:18:34.328Z,64.63
2023-04-30T15:21:02.788Z,64.92
2023-04-30T15:23:31.918Z,65.90
2023-04-30T15:26:00.162Z,66.97
2023-04-30T15:28:29.088Z,64.99
2023-04-30T15:30:57.382Z,67.09
2023-04-30T15:33:28.888Z,67.37
2023-04-30T15:35:57.388Z,69.45
2023-04-30T15:38:25.682Z,69.75
2023-04-30T15:40:53.889Z,71.27
2023-04-30T15:43:23.313Z,72.53
2023-04-30T15:45:51.594Z,72.73
2023-04-30T15:48:19.951Z,73.46
2023-04-30T15:50:50.513Z,72.00
2023-04-30T15:53:18.784Z,72.42
2023-04-30T15:55:47.976Z,74.49
2023-04-30T15:58:16.531Z,75.26
2023-04-30T16:00:45.051Z,77.68
2023-04-30T16:03:13.425Z,78.51
2023-04-30T16:05:42.378Z,80.21
2023-04-30T16:08:12.307Z,80.51
2023-04-30T16:10:40.647Z,77.51
2023-04-30T16:13:09.992Z,78.23
2023-04-30T16:15:38.267Z,79.21
2023-04-30T16:18:07.987Z,80.12
2023-04-30T16:20:36.821Z,81.47
2023-04-30T16:23:06.125Z,81.62
2023-04-30T16:25:35.944Z,80.41
2023-04-30T16:28:04.316Z,80.53
2023-04-30T16:30:33.924Z,82.51
2023-04-30T16:33:02.294Z,82.41
2023-04-30T16:35:31.693Z,83.18
2023-04-30T16:37:59.950Z,83.79
2023-04-30T16:40:28.286Z,81.10
2023-04-30T16:42:59.088Z,81.97
2023-04-30T16:45:27.503Z,82.53
2023-04-30T16:47:56.577Z,83.04
2023-04-30T16:50:26.877Z,83.33
2023-04-30T16:52:55.265Z,83.33
2023-04-30T16:55:23.600Z,83.94
2023-04-30T16:57:53.931Z,81.58
2023-04-30T17:00:23.959Z,79.43
2023-04-30T17:02:53.363Z,79.65
2023-04-30T17:05:22.542Z,79.72
2023-04-30T17:07:50.893Z,79.63
2023-04-30T17:10:19.665Z,80.22
2023-04-30T17:12:48.046Z,78.41
2023-04-30T17:15:18.311Z,78.88
2023-04-30T17:17:48.518Z,77.34
2023-04-30T17:20:16.859Z,76.19
2023-04-30T17:22:45.145Z,77.11
2023-04-30T17:25:13.455Z,77.14
2023-04-30T17:27:41.755Z,71.80
2023-04-30T17:30:10.818Z,73.04
2023-04-30T17:32:39.523Z,72.94
2023-04-30T17:35:09.508Z,71.13
2023-04-30T17:37:37.910Z,70.72
2023-04-30T17:40:07.762Z,70.95
2023-04-30T17:42:36.083Z,72.51
2023-04-30T17:45:04.541Z,73.62
2023-04-30T17:47:33.098Z,74.63
2023-04-30T17:50:04.667Z,75.16
2023-04-30T17:52:38.583Z,74.70
2023-04-30T17:55:08.406Z,74.52
2023-04-30T17:57:36.862Z,73.89
2023-04-30T18:00:07.183Z,73.24
2023-04-30T18:02:35.562Z,72.40
2023-04-30T18:05:03.905Z,70.13
2023-04-30T18:07:33.656Z,71.21
2023-04-30T18:10:01.914Z,72.19
2023-04-30T18:12:31.013Z,73.01
2023-04-30T18:15:00.773Z,73.63
2023-04-30T18:17:29.077Z,73.97
2023-04-30T18:19:57.688Z,74.18
2023-04-30T18:22:26.123Z,74.06
2023-04-30T18:24:56.028Z,74.38
2023-04-30T18:27:24.326Z,73.96
2023-04-30T18:29:52.793Z,74.17
2023-04-30T18:32:21.263Z,74.63
2023-04-30T18:34:49.748Z,74.21
2023-04-30T18:37:18.124Z,69.86
2023-04-30T18:39:46.356Z,71.67
2023-04-30T18:42:16.178Z,73.12
2023-04-30T18:44:44.476Z,74.73
2023-04-30T18:47:12.802Z,75.70
2023-04-30T18:49:41.509Z,76.92
2023-04-30T18:52:10.154Z,76.85
2023-04-30T18:54:38.601Z,75.28
2023-04-30T18:57:08.013Z,76.27
2023-04-30T18:59:39.263Z,74.61
2023-04-30T19:02:07.957Z,73.13
2023-04-30T19:04:36.593Z,71.25
2023-04-30T19:07:04.849Z,71.13
2023-04-30T19:09:37.110Z,71.15
2023-04-30T19:12:06.525Z,70.44
2023-04-30T19:14:34.955Z,70.19
2023-04-30T19:17:05.161Z,70.14
2023-04-30T19:19:34.219Z,68.90
2023-04-30T19:22:02.451Z,68.78
2023-04-30T19:24:30.843Z,67.44
2023-04-30T19:26:59.123Z,67.62
2023-04-30T19:29:29.640Z,66.73
2023-04-30T19:31:59.639Z,67.72
2023-04-30T19:34:29.564Z,66.96
2023-04-30T19:36:58.440Z,66.63
2023-04-30T19:39:31.935Z,66.92
2023-04-30T19:42:00.349Z,66.90
2023-04-30T19:44:29.502Z,65.01
2023-04-30T19:46:58.322Z,64.94
2023-04-30T19:49:26.886Z,64.13
2023-04-30T19:51:56.663Z,64.92
2023-04-30T19:54:24.919Z,65.84
2023-04-30T19:56:54.972Z,64.03
2023-04-30T19:59:23.537Z,64.01
2023-04-30T20:01:53.546Z,63.89
2023-04-30T20:04:21.859Z,61.16
2023-04-30T20:06:56.981Z,60.83
2023-04-30T20:09:26.930Z,58.72
2023-04-30T20:11:56.448Z,58.87
2023-04-30T20:14:25.044Z,58.49
2023-04-30T20:16:54.985Z,56.89
2023-04-30T20:19:23.509Z,56.63
2023-04-30T20:21:52.076Z,56.07
2023-04-30T20:24:21.853Z,54.84
2023-04-30T20:26:51.497Z,54.71
2023-04-30T20:29:20.772Z,55.67
2023-04-30T20:31:49.248Z,54.82
2023-04-30T20:34:17.703Z,54.80
2023-04-30T20:36:45.936Z,57.09
2023-04-30T20:39:14.735Z,57.14
2023-04-30T20:41:44.068Z,56.56
2023-04-30T20:44:14.022Z,57.92
2023-04-30T20:46:43.255Z,58.99
2023-04-30T20:49:12.400Z,56.75
2023-04-30T20:51:40.680Z,57.04
2023-04-30T20:54:09.835Z,59.33
2023-04-30T20:56:38.626Z,60.70
2023-04-30T20:59:06.951Z,59.54
2023-04-30T21:01:37.061Z,58.55
2023-04-30T21:04:05.618Z,59.56
2023-04-30T21:06:34.160Z,59.91
2023-04-30T21:09:02.460Z,60.30
2023-04-30T21:11:30.949Z,60.85
2023-04-30T21:13:59.212Z,61.47
2023-04-30T21:16:28.926Z,64.34
2023-04-30T21:18:58.839Z,65.02
2023-04-30T21:21:27.521Z,66.10
2023-04-30T21:23:55.874Z,67.86
2023-04-30T21:26:24.342Z,65.83
2023-04-30T21:28:52.857Z,64.12
2023-04-30T21:31:21.328Z,63.09
2023-04-30T21:33:49.574Z,62.74
2023-04-30T21:36:20.380Z,62.18
2023-04-30T21:38:48.743Z,62.34
2023-04-30T21:41:18.177Z,64.24
2023-04-30T21:43:46.544Z,67.08
2023-04-30T21:46:14.955Z,69.93
2023-04-30T21:48:43.374Z,73.40
2023-04-30T21:51:15.357Z,75.11
2023-04-30T21:53:45.913Z,76.80
2023-04-30T21:56:14.900Z,77.91
2023-04-30T21:58:43.695Z,76.94
2023-04-30T22:01:12.414Z,75.65
2023-04-30T22:03:42.670Z,73.34
2023-04-30T22:06:11.240Z,70.93
2023-04-30T22:08:39.584Z,68.68
2023-04-30T22:11:09.351Z,67.97
2023-04-30T22:13:37.855Z,67.49
2023-04-30T22:16:06.766Z,67.08
2023-04-30T22:18:35.337Z,66.35
2023-04-30T22:21:03.838Z,66.42
2023-04-30T22:23:32.336Z,65.75
2023-04-30T22:26:01.356Z,66.38
2023-04-30T22:28:31.006Z,66.30
2023-04-30T22:31:00.392Z,66.76
2023-04-30T22:33:28.710Z,71.58
2023-04-30T22:35:57.333Z,74.63
2023-04-30T22:38:25.657Z,75.29
2023-04-30T22:40:54.123Z,75.41
2023-04-30T22:43:22.770Z,74.65
2023-04-30T22:45:52.777Z,74.72
2023-04-30T22:48:21.061Z,73.62
2023-04-30T22:50:49.493Z,70.21
2023-04-30T22:53:17.806Z,69.74
2023-04-30T22:55:46.630Z,69.51
2023-04-30T22:58:14.909Z,69.52
2023-04-30T23:00:43.327Z,67.70
2023-04-30T23:03:13.115Z,67.70
2023-04-30T23:05:41.425Z,66.35
2023-04-30T23:08:09.691Z,69.01
2023-04-30T23:10:38.151Z,66.85
2023-04-30T23:13:06.464Z,61.63
2023-04-30T23:15:34.687Z,61.36
2023-04-30T23:18:05.325Z,61.87
2023-04-30T23:20:35.057Z,61.92
2023-04-30T23:23:03.304Z,60.75
2023-04-30T23:25:32.898Z,60.95
2023-04-30T23:28:01.323Z,64.03
2023-04-30T23:30:29.570Z,65.89
2023-04-30T23:32:58.210Z,68.26
2023-04-30T23:35:27.622Z,70.45
2023-04-30T23:37:57.642Z,66.58
2023-04-30T23:40:26.061Z,64.97
2023-04-30T23:42:55.864Z,63.34
2023-04-30T23:45:24.365Z,63.74
2023-04-30T23:47:52.892Z,62.30
2023-04-30T23:50:23.971Z,63.38
2023-04-30T23:52:52.492Z,66.38
2023-04-30T23:55:22.519Z,66.28
2023-04-30T23:57:50.853Z,63.47
